Terminal Aerodrome Forecast
Issued by NWS New Orleans/Baton Rouge, LA

Current Version | Previous Version | Text Only | Print | Product List | Glossary On
Versions: 1 2 3 4 5 6 7 8 9 10 11 12 13 14 15 16 17 18 19 20 21
152
FTUS44 KLIX 180540
TAFBTR
TAF
KBTR 180540Z 1806/1906 10003KT P6SM SCT010 BKN025
     FM180900 14004KT 2SM BR BKN008
     FM181300 14004KT 1/2SM FG OVC003
     FM181600 15005KT P6SM BKN005
     FM181700 15005KT P6SM BKN010
     FM181900 15006KT P6SM VCSH OVC040=

USA.gov is the U.S. government's official web portal to all federal, state and local government web resources and services.